sensor_id;sensor_type;location;lat;lon;timestamp;P1;durP1;ratioP1;P2;durP2;ratioP2
26946;SDS011;14501;52.282;10.560;2023-10-19T00:00:13;8.13;;;4.63;;
26946;SDS011;14501;52.282;10.560;2023-10-19T00:02:46;7.35;;;4.97;;
26946;SDS011;14501;52.282;10.560;2023-10-19T00:05:13;7.97;;;4.97;;
26946;SDS011;14501;52.282;10.560;2023-10-19T00:07:40;7.80;;;4.47;;
26946;SDS011;14501;52.282;10.560;2023-10-19T00:10:06;7.10;;;4.90;;
26946;SDS011;14501;52.282;10.560;2023-10-19T00:12:32;9.02;;;5.30;;
26946;SDS011;14501;52.282;10.560;2023-10-19T00:14:58;9.27;;;5.22;;
26946;SDS011;14501;52.282;10.560;2023-10-19T00:17:25;8.23;;;5.20;;
26946;SDS011;14501;52.282;10.560;2023-10-19T00:19:52;7.40;;;5.13;;
26946;SDS011;14501;52.282;10.560;2023-10-19T00:22:44;8.68;;;5.32;;
26946;SDS011;14501;52.282;10.560;2023-10-19T00:25:09;10.45;;;5.53;;
26946;SDS011;14501;52.282;10.560;2023-10-19T00:27:38;7.63;;;5.28;;
26946;SDS011;14501;52.282;10.560;2023-10-19T00:30:05;12.90;;;5.78;;
26946;SDS011;14501;52.282;10.560;2023-10-19T00:32:31;11.50;;;6.00;;
26946;SDS011;14501;52.282;10.560;2023-10-19T00:34:59;10.73;;;6.45;;
26946;SDS011;14501;52.282;10.560;2023-10-19T00:37:32;9.05;;;5.55;;
26946;SDS011;14501;52.282;10.560;2023-10-19T00:40:07;9.45;;;5.60;;
26946;SDS011;14501;52.282;10.560;2023-10-19T00:42:56;9.13;;;5.80;;
26946;SDS011;14501;52.282;10.560;2023-10-19T00:45:22;9.77;;;5.85;;
26946;SDS011;14501;52.282;10.560;2023-10-19T00:47:51;12.38;;;6.40;;
26946;SDS011;14501;52.282;10.560;2023-10-19T00:50:18;10.30;;;6.53;;
26946;SDS011;14501;52.282;10.560;2023-10-19T00:52:47;9.65;;;5.30;;
26946;SDS011;14501;52.282;10.560;2023-10-19T00:55:16;8.70;;;5.72;;
26946;SDS011;14501;52.282;10.560;2023-10-19T00:57:46;9.45;;;5.85;;
26946;SDS011;14501;52.282;10.560;2023-10-19T01:00:15;8.57;;;6.28;;
26946;SDS011;14501;52.282;10.560;2023-10-19T01:02:55;10.63;;;6.30;;
26946;SDS011;14501;52.282;10.560;2023-10-19T01:05:25;16.52;;;7.40;;
26946;SDS011;14501;52.282;10.560;2023-10-19T01:07:57;11.35;;;6.45;;
26946;SDS011;14501;52.282;10.560;2023-10-19T01:10:27;11.05;;;6.78;;
26946;SDS011;14501;52.282;10.560;2023-10-19T01:12:53;14.00;;;7.20;;
26946;SDS011;14501;52.282;10.560;2023-10-19T01:15:19;11.30;;;6.32;;
26946;SDS011;14501;52.282;10.560;2023-10-19T01:17:53;16.75;;;7.53;;
26946;SDS011;14501;52.282;10.560;2023-10-19T01:20:31;12.55;;;7.55;;
26946;SDS011;14501;52.282;10.560;2023-10-19T01:22:58;16.08;;;8.25;;
26946;SDS011;14501;52.282;10.560;2023-10-19T01:25:43;9.77;;;5.97;;
26946;SDS011;14501;52.282;10.560;2023-10-19T01:28:19;12.30;;;7.60;;
26946;SDS011;14501;52.282;10.560;2023-10-19T01:30:47;13.68;;;7.38;;
26946;SDS011;14501;52.282;10.560;2023-10-19T01:33:16;11.73;;;7.18;;
26946;SDS011;14501;52.282;10.560;2023-10-19T01:35:45;13.68;;;7.70;;
26946;SDS011;14501;52.282;10.560;2023-10-19T01:38:30;12.75;;;8.57;;
26946;SDS011;14501;52.282;10.560;2023-10-19T01:41:14;16.50;;;8.00;;
26946;SDS011;14501;52.282;10.560;2023-10-19T01:43:43;11.50;;;7.85;;
26946;SDS011;14501;52.282;10.560;2023-10-19T01:46:11;11.98;;;7.75;;
26946;SDS011;14501;52.282;10.560;2023-10-19T01:48:38;11.35;;;7.75;;
26946;SDS011;14501;52.282;10.560;2023-10-19T01:51:11;12.57;;;7.68;;
26946;SDS011;14501;52.282;10.560;2023-10-19T01:53:39;13.35;;;7.55;;
26946;SDS011;14501;52.282;10.560;2023-10-19T01:56:08;13.43;;;7.90;;
26946;SDS011;14501;52.282;10.560;2023-10-19T01:58:38;13.05;;;7.15;;
26946;SDS011;14501;52.282;10.560;2023-10-19T02:01:08;12.35;;;6.45;;
26946;SDS011;14501;52.282;10.560;2023-10-19T02:03:45;13.55;;;7.82;;
26946;SDS011;14501;52.282;10.560;2023-10-19T02:06:13;10.43;;;7.18;;
26946;SDS011;14501;52.282;10.560;2023-10-19T02:08:49;12.65;;;8.00;;
26946;SDS011;14501;52.282;10.560;2023-10-19T02:11:20;13.02;;;7.43;;
26946;SDS011;14501;52.282;10.560;2023-10-19T02:13:47;13.57;;;7.85;;
26946;SDS011;14501;52.282;10.560;2023-10-19T02:16:17;14.85;;;8.00;;
26946;SDS011;14501;52.282;10.560;2023-10-19T02:18:54;15.32;;;7.00;;
26946;SDS011;14501;52.282;10.560;2023-10-19T02:21:20;14.52;;;7.80;;
26946;SDS011;14501;52.282;10.560;2023-10-19T02:23:55;14.38;;;7.95;;
26946;SDS011;14501;52.282;10.560;2023-10-19T02:26:24;14.18;;;7.60;;
26946;SDS011;14501;52.282;10.560;2023-10-19T02:28:51;11.85;;;7.57;;
26946;SDS011;14501;52.282;10.560;2023-10-19T02:31:17;13.80;;;8.02;;
26946;SDS011;14501;52.282;10.560;2023-10-19T02:33:46;13.55;;;8.73;;
26946;SDS011;14501;52.282;10.560;2023-10-19T02:36:21;14.23;;;8.27;;
26946;SDS011;14501;52.282;10.560;2023-10-19T02:38:47;15.45;;;8.88;;
26946;SDS011;14501;52.282;10.560;2023-10-19T02:41:17;14.38;;;8.38;;
26946;SDS011;14501;52.282;10.560;2023-10-19T02:43:44;13.13;;;8.38;;
26946;SDS011;14501;52.282;10.560;2023-10-19T02:46:25;14.20;;;8.13;;
26946;SDS011;14501;52.282;10.560;2023-10-19T02:48:51;15.23;;;8.82;;
26946;SDS011;14501;52.282;10.560;2023-10-19T02:51:17;12.40;;;7.53;;
26946;SDS011;14501;52.282;10.560;2023-10-19T02:53:44;15.82;;;8.30;;
26946;SDS011;14501;52.282;10.560;2023-10-19T02:56:13;14.25;;;8.45;;
26946;SDS011;14501;52.282;10.560;2023-10-19T02:58:48;16.85;;;9.20;;
26946;SDS011;14501;52.282;10.560;2023-10-19T03:03:51;12.38;;;8.07;;
26946;SDS011;14501;52.282;10.560;2023-10-19T03:06:24;13.05;;;7.90;;
26946;SDS011;14501;52.282;10.560;2023-10-19T03:08:51;15.70;;;9.05;;
26946;SDS011;14501;52.282;10.560;2023-10-19T03:11:25;15.90;;;9.38;;
26946;SDS011;14501;52.282;10.560;2023-10-19T03:13:52;11.82;;;7.28;;
26946;SDS011;14501;52.282;10.560;2023-10-19T03:16:18;14.32;;;8.05;;
26946;SDS011;14501;52.282;10.560;2023-10-19T03:18:45;16.90;;;8.75;;
26946;SDS011;14501;52.282;10.560;2023-10-19T03:21:11;14.55;;;8.70;;
26946;SDS011;14501;52.282;10.560;2023-10-19T03:23:37;17.58;;;9.38;;
26946;SDS011;14501;52.282;10.560;2023-10-19T03:26:03;13.98;;;8.55;;
26946;SDS011;14501;52.282;10.560;2023-10-19T03:28:47;16.20;;;9.27;;
26946;SDS011;14501;52.282;10.560;2023-10-19T03:31:14;15.73;;;9.40;;
26946;SDS011;14501;52.282;10.560;2023-10-19T03:33:50;16.98;;;9.60;;
26946;SDS011;14501;52.282;10.560;2023-10-19T03:36:22;15.77;;;9.18;;
26946;SDS011;14501;52.282;10.560;2023-10-19T03:38:49;15.43;;;9.48;;
26946;SDS011;14501;52.282;10.560;2023-10-19T03:41:19;16.27;;;9.20;;
26946;SDS011;14501;52.282;10.560;2023-10-19T03:46:19;13.98;;;7.90;;
26946;SDS011;14501;52.282;10.560;2023-10-19T03:48:53;15.82;;;9.15;;
26946;SDS011;14501;52.282;10.560;2023-10-19T03:51:23;15.98;;;8.60;;
26946;SDS011;14501;52.282;10.560;2023-10-19T03:53:51;17.10;;;9.43;;
26946;SDS011;14501;52.282;10.560;2023-10-19T03:56:23;13.82;;;8.65;;
26946;SDS011;14501;52.282;10.560;2023-10-19T03:58:49;14.30;;;9.27;;
26946;SDS011;14501;52.282;10.560;2023-10-19T04:01:16;14.82;;;8.00;;
26946;SDS011;14501;52.282;10.560;2023-10-19T04:03:44;11.07;;;7.15;;
26946;SDS011;14501;52.282;10.560;2023-10-19T04:06:10;14.40;;;9.45;;
26946;SDS011;14501;52.282;10.560;2023-10-19T04:08:39;14.52;;;8.20;;
26946;SDS011;14501;52.282;10.560;2023-10-19T04:11:07;14.38;;;8.10;;
26946;SDS011;14501;52.282;10.560;2023-10-19T04:13:34;19.80;;;9.93;;
26946;SDS011;14501;52.282;10.560;2023-10-19T04:16:00;16.13;;;9.18;;
26946;SDS011;14501;52.282;10.560;2023-10-19T04:18:26;11.48;;;8.27;;
26946;SDS011;14501;52.282;10.560;2023-10-19T04:20:52;15.55;;;9.23;;
26946;SDS011;14501;52.282;10.560;2023-10-19T04:23:17;14.38;;;8.38;;
26946;SDS011;14501;52.282;10.560;2023-10-19T04:25:45;13.73;;;8.48;;
26946;SDS011;14501;52.282;10.560;2023-10-19T04:28:11;18.13;;;9.70;;
26946;SDS011;14501;52.282;10.560;2023-10-19T04:33:04;17.23;;;9.18;;
26946;SDS011;14501;52.282;10.560;2023-10-19T04:35:34;18.60;;;9.32;;
26946;SDS011;14501;52.282;10.560;2023-10-19T04:38:03;14.25;;;8.55;;
26946;SDS011;14501;52.282;10.560;2023-10-19T04:40:31;14.82;;;8.95;;
26946;SDS011;14501;52.282;10.560;2023-10-19T04:42:57;14.77;;;8.52;;
26946;SDS011;14501;52.282;10.560;2023-10-19T04:45:23;14.10;;;8.90;;
26946;SDS011;14501;52.282;10.560;2023-10-19T04:47:52;15.50;;;8.85;;
26946;SDS011;14501;52.282;10.560;2023-10-19T04:50:18;15.15;;;9.15;;
26946;SDS011;14501;52.282;10.560;2023-10-19T04:52:43;18.27;;;10.15;;
26946;SDS011;14501;52.282;10.560;2023-10-19T04:55:09;17.42;;;10.13;;
26946;SDS011;14501;52.282;10.560;2023-10-19T04:57:35;14.35;;;8.05;;
26946;SDS011;14501;52.282;10.560;2023-10-19T05:00:01;13.43;;;9.68;;
26946;SDS011;14501;52.282;10.560;2023-10-19T05:02:28;16.35;;;8.98;;
26946;SDS011;14501;52.282;10.560;2023-10-19T05:04:54;15.18;;;8.65;;
26946;SDS011;14501;52.282;10.560;2023-10-19T05:07:20;15.48;;;8.50;;
26946;SDS011;14501;52.282;10.560;2023-10-19T05:09:46;17.48;;;9.98;;
26946;SDS011;14501;52.282;10.560;2023-10-19T05:12:13;14.23;;;8.77;;
26946;SDS011;14501;52.282;10.560;2023-10-19T05:14:39;18.20;;;10.30;;
26946;SDS011;14501;52.282;10.560;2023-10-19T05:17:06;12.85;;;7.85;;
26946;SDS011;14501;52.282;10.560;2023-10-19T05:19:34;14.50;;;8.70;;
26946;SDS011;14501;52.282;10.560;2023-10-19T05:22:01;16.40;;;9.65;;
26946;SDS011;14501;52.282;10.560;2023-10-19T05:24:28;14.23;;;8.65;;
26946;SDS011;14501;52.282;10.560;2023-10-19T05:26:55;17.58;;;9.48;;
26946;SDS011;14501;52.282;10.560;2023-10-19T05:29:20;21.17;;;10.63;;
26946;SDS011;14501;52.282;10.560;2023-10-19T05:31:46;13.93;;;9.00;;
26946;SDS011;14501;52.282;10.560;2023-10-19T05:34:12;16.75;;;8.43;;
26946;SDS011;14501;52.282;10.560;2023-10-19T05:36:38;15.82;;;9.35;;
26946;SDS011;14501;52.282;10.560;2023-10-19T05:39:04;18.15;;;9.98;;
26946;SDS011;14501;52.282;10.560;2023-10-19T05:41:32;17.33;;;9.50;;
26946;SDS011;14501;52.282;10.560;2023-10-19T05:43:59;13.35;;;8.55;;
26946;SDS011;14501;52.282;10.560;2023-10-19T05:46:24;16.25;;;8.60;;
26946;SDS011;14501;52.282;10.560;2023-10-19T05:48:50;14.55;;;9.32;;
26946;SDS011;14501;52.282;10.560;2023-10-19T05:51:17;11.85;;;8.32;;
26946;SDS011;14501;52.282;10.560;2023-10-19T05:53:43;13.35;;;7.60;;
26946;SDS011;14501;52.282;10.560;2023-10-19T05:56:09;16.90;;;7.43;;
26946;SDS011;14501;52.282;10.560;2023-10-19T05:58:36;11.30;;;7.43;;
26946;SDS011;14501;52.282;10.560;2023-10-19T06:01:01;12.90;;;8.18;;
26946;SDS011;14501;52.282;10.560;2023-10-19T06:03:27;12.60;;;7.80;;
26946;SDS011;14501;52.282;10.560;2023-10-19T06:05:54;13.55;;;7.43;;
26946;SDS011;14501;52.282;10.560;2023-10-19T06:08:21;15.63;;;9.15;;
26946;SDS011;14501;52.282;10.560;2023-10-19T06:10:53;15.20;;;8.80;;
26946;SDS011;14501;52.282;10.560;2023-10-19T06:13:19;13.63;;;8.52;;
26946;SDS011;14501;52.282;10.560;2023-10-19T06:15:48;13.43;;;7.93;;
26946;SDS011;14501;52.282;10.560;2023-10-19T06:18:14;14.07;;;7.13;;
26946;SDS011;14501;52.282;10.560;2023-10-19T06:20:45;13.10;;;7.53;;
26946;SDS011;14501;52.282;10.560;2023-10-19T06:23:12;11.23;;;7.15;;
26946;SDS011;14501;52.282;10.560;2023-10-19T06:25:38;13.82;;;8.00;;
26946;SDS011;14501;52.282;10.560;2023-10-19T06:28:04;10.85;;;6.95;;
26946;SDS011;14501;52.282;10.560;2023-10-19T06:30:30;12.90;;;7.47;;
26946;SDS011;14501;52.282;10.560;2023-10-19T06:32:57;10.75;;;6.95;;
26946;SDS011;14501;52.282;10.560;2023-10-19T06:35:26;14.68;;;8.13;;
26946;SDS011;14501;52.282;10.560;2023-10-19T06:37:53;9.40;;;5.75;;
26946;SDS011;14501;52.282;10.560;2023-10-19T06:40:22;12.50;;;7.68;;
26946;SDS011;14501;52.282;10.560;2023-10-19T06:42:48;10.77;;;6.55;;
26946;SDS011;14501;52.282;10.560;2023-10-19T06:45:15;10.52;;;7.38;;
26946;SDS011;14501;52.282;10.560;2023-10-19T06:47:41;12.82;;;7.20;;
26946;SDS011;14501;52.282;10.560;2023-10-19T06:50:09;9.75;;;6.65;;
26946;SDS011;14501;52.282;10.560;2023-10-19T06:52:37;11.32;;;6.75;;
26946;SDS011;14501;52.282;10.560;2023-10-19T06:55:03;11.60;;;6.88;;
26946;SDS011;14501;52.282;10.560;2023-10-19T06:57:30;10.85;;;6.80;;
26946;SDS011;14501;52.282;10.560;2023-10-19T06:59:58;10.32;;;6.13;;
26946;SDS011;14501;52.282;10.560;2023-10-19T07:02:24;12.93;;;6.75;;
26946;SDS011;14501;52.282;10.560;2023-10-19T07:04:51;8.15;;;5.57;;
26946;SDS011;14501;52.282;10.560;2023-10-19T07:07:17;10.38;;;6.70;;
26946;SDS011;14501;52.282;10.560;2023-10-19T07:09:43;9.98;;;5.80;;
26946;SDS011;14501;52.282;10.560;2023-10-19T07:12:09;9.40;;;6.20;;
26946;SDS011;14501;52.282;10.560;2023-10-19T07:14:35;11.85;;;6.35;;
26946;SDS011;14501;52.282;10.560;2023-10-19T07:17:01;11.07;;;5.70;;
26946;SDS011;14501;52.282;10.560;2023-10-19T07:19:27;8.55;;;5.75;;
26946;SDS011;14501;52.282;10.560;2023-10-19T07:21:54;8.73;;;5.55;;
26946;SDS011;14501;52.282;10.560;2023-10-19T07:24:25;10.50;;;5.80;;
26946;SDS011;14501;52.282;10.560;2023-10-19T07:26:51;7.53;;;5.43;;
26946;SDS011;14501;52.282;10.560;2023-10-19T07:29:29;10.07;;;5.68;;
26946;SDS011;14501;52.282;10.560;2023-10-19T07:31:55;7.05;;;5.25;;
26946;SDS011;14501;52.282;10.560;2023-10-19T07:34:23;7.60;;;4.57;;
26946;SDS011;14501;52.282;10.560;2023-10-19T07:36:52;6.72;;;4.75;;
26946;SDS011;14501;52.282;10.560;2023-10-19T07:39:19;9.65;;;5.68;;
26946;SDS011;14501;52.282;10.560;2023-10-19T07:41:47;7.32;;;5.43;;
26946;SDS011;14501;52.282;10.560;2023-10-19T07:44:13;8.93;;;5.35;;
26946;SDS011;14501;52.282;10.560;2023-10-19T07:46:39;8.82;;;5.47;;
26946;SDS011;14501;52.282;10.560;2023-10-19T07:49:04;8.77;;;5.50;;
26946;SDS011;14501;52.282;10.560;2023-10-19T07:51:32;8.60;;;5.53;;
26946;SDS011;14501;52.282;10.560;2023-10-19T07:53:57;6.32;;;4.25;;
26946;SDS011;14501;52.282;10.560;2023-10-19T07:56:23;9.40;;;4.40;;
26946;SDS011;14501;52.282;10.560;2023-10-19T07:58:49;6.28;;;4.82;;
26946;SDS011;14501;52.282;10.560;2023-10-19T08:01:15;8.30;;;5.80;;
26946;SDS011;14501;52.282;10.560;2023-10-19T08:03:41;8.25;;;5.30;;
26946;SDS011;14501;52.282;10.560;2023-10-19T08:06:06;11.23;;;5.35;;
26946;SDS011;14501;52.282;10.560;2023-10-19T08:08:32;9.15;;;5.10;;
26946;SDS011;14501;52.282;10.560;2023-10-19T08:11:01;8.30;;;4.80;;
26946;SDS011;14501;52.282;10.560;2023-10-19T08:13:27;6.53;;;4.07;;
26946;SDS011;14501;52.282;10.560;2023-10-19T08:15:53;7.18;;;4.20;;
26946;SDS011;14501;52.282;10.560;2023-10-19T08:18:18;7.72;;;4.97;;
26946;SDS011;14501;52.282;10.560;2023-10-19T08:20:45;5.95;;;4.25;;
26946;SDS011;14501;52.282;10.560;2023-10-19T08:23:11;4.43;;;3.28;;
26946;SDS011;14501;52.282;10.560;2023-10-19T08:25:42;5.47;;;3.88;;
26946;SDS011;14501;52.282;10.560;2023-10-19T08:28:09;4.93;;;4.13;;
26946;SDS011;14501;52.282;10.560;2023-10-19T08:30:36;6.63;;;4.35;;
26946;SDS011;14501;52.282;10.560;2023-10-19T08:33:02;6.75;;;4.13;;
26946;SDS011;14501;52.282;10.560;2023-10-19T08:35:29;5.28;;;4.10;;
26946;SDS011;14501;52.282;10.560;2023-10-19T08:37:56;5.53;;;4.20;;
26946;SDS011;14501;52.282;10.560;2023-10-19T08:40:22;5.57;;;4.03;;
26946;SDS011;14501;52.282;10.560;2023-10-19T08:42:51;4.45;;;3.53;;
26946;SDS011;14501;52.282;10.560;2023-10-19T08:45:18;5.25;;;3.58;;
26946;SDS011;14501;52.282;10.560;2023-10-19T08:50:13;6.07;;;3.70;;
26946;SDS011;14501;52.282;10.560;2023-10-19T08:52:39;6.75;;;4.05;;
26946;SDS011;14501;52.282;10.560;2023-10-19T08:55:07;4.03;;;3.33;;
26946;SDS011;14501;52.282;10.560;2023-10-19T08:57:35;5.00;;;4.38;;
26946;SDS011;14501;52.282;10.560;2023-10-19T09:00:01;4.43;;;3.15;;
26946;SDS011;14501;52.282;10.560;2023-10-19T09:02:31;4.20;;;3.22;;
26946;SDS011;14501;52.282;10.560;2023-10-19T09:04:57;3.80;;;3.17;;
26946;SDS011;14501;52.282;10.560;2023-10-19T09:07:25;4.30;;;2.95;;
26946;SDS011;14501;52.282;10.560;2023-10-19T09:09:55;4.75;;;3.88;;
26946;SDS011;14501;52.282;10.560;2023-10-19T09:12:22;5.45;;;3.78;;
26946;SDS011;14501;52.282;10.560;2023-10-19T09:14:48;5.70;;;3.78;;
26946;SDS011;14501;52.282;10.560;2023-10-19T09:17:15;5.30;;;3.42;;
26946;SDS011;14501;52.282;10.560;2023-10-19T09:19:44;4.55;;;3.47;;
26946;SDS011;14501;52.282;10.560;2023-10-19T09:22:12;5.40;;;4.07;;
26946;SDS011;14501;52.282;10.560;2023-10-19T09:24:46;5.82;;;4.07;;
26946;SDS011;14501;52.282;10.560;2023-10-19T09:27:16;4.28;;;3.47;;
26946;SDS011;14501;52.282;10.560;2023-10-19T09:29:42;6.60;;;3.60;;
26946;SDS011;14501;52.282;10.560;2023-10-19T09:32:08;4.65;;;3.78;;
26946;SDS011;14501;52.282;10.560;2023-10-19T09:34:36;5.72;;;3.72;;
26946;SDS011;14501;52.282;10.560;2023-10-19T09:37:03;3.83;;;3.45;;
26946;SDS011;14501;52.282;10.560;2023-10-19T09:39:32;5.13;;;3.22;;
26946;SDS011;14501;52.282;10.560;2023-10-19T09:42:01;6.03;;;4.38;;
26946;SDS011;14501;52.282;10.560;2023-10-19T09:44:32;6.28;;;4.07;;
26946;SDS011;14501;52.282;10.560;2023-10-19T09:47:07;6.85;;;3.92;;
26946;SDS011;14501;52.282;10.560;2023-10-19T09:49:40;6.28;;;4.57;;
26946;SDS011;14501;52.282;10.560;2023-10-19T09:52:07;6.38;;;4.10;;
26946;SDS011;14501;52.282;10.560;2023-10-19T09:54:42;7.25;;;4.72;;
26946;SDS011;14501;52.282;10.560;2023-10-19T09:57:13;5.60;;;4.57;;
26946;SDS011;14501;52.282;10.560;2023-10-19T09:59:44;7.47;;;4.70;;
26946;SDS011;14501;52.282;10.560;2023-10-19T10:02:12;7.30;;;5.13;;
26946;SDS011;14501;52.282;10.560;2023-10-19T10:04:40;8.38;;;4.78;;
26946;SDS011;14501;52.282;10.560;2023-10-19T10:07:07;5.90;;;4.78;;
26946;SDS011;14501;52.282;10.560;2023-10-19T10:09:35;6.57;;;4.55;;
26946;SDS011;14501;52.282;10.560;2023-10-19T10:12:21;7.75;;;4.82;;
26946;SDS011;14501;52.282;10.560;2023-10-19T10:14:59;8.38;;;5.10;;
26946;SDS011;14501;52.282;10.560;2023-10-19T10:17:36;7.18;;;4.72;;
26946;SDS011;14501;52.282;10.560;2023-10-19T10:20:45;8.57;;;5.10;;
26946;SDS011;14501;52.282;10.560;2023-10-19T10:23:15;8.35;;;5.15;;
26946;SDS011;14501;52.282;10.560;2023-10-19T10:25:44;8.30;;;4.90;;
26946;SDS011;14501;52.282;10.560;2023-10-19T10:28:13;7.28;;;5.20;;
26946;SDS011;14501;52.282;10.560;2023-10-19T10:33:38;6.88;;;5.05;;
26946;SDS011;14501;52.282;10.560;2023-10-19T10:36:05;7.80;;;5.07;;
26946;SDS011;14501;52.282;10.560;2023-10-19T10:38:34;7.05;;;5.30;;
26946;SDS011;14501;52.282;10.560;2023-10-19T10:41:00;8.23;;;5.32;;
26946;SDS011;14501;52.282;10.560;2023-10-19T10:43:27;7.35;;;5.07;;
26946;SDS011;14501;52.282;10.560;2023-10-19T10:46:01;6.22;;;4.28;;
26946;SDS011;14501;52.282;10.560;2023-10-19T10:48:30;6.88;;;4.97;;
26946;SDS011;14501;52.282;10.560;2023-10-19T10:50:56;6.82;;;4.85;;
26946;SDS011;14501;52.282;10.560;2023-10-19T10:53:22;9.63;;;5.82;;
26946;SDS011;14501;52.282;10.560;2023-10-19T10:55:52;11.95;;;5.68;;
26946;SDS011;14501;52.282;10.560;2023-10-19T10:58:18;8.75;;;5.03;;
26946;SDS011;14501;52.282;10.560;2023-10-19T11:00:44;9.40;;;5.82;;
26946;SDS011;14501;52.282;10.560;2023-10-19T11:03:16;7.82;;;5.20;;
26946;SDS011;14501;52.282;10.560;2023-10-19T11:05:42;13.65;;;7.10;;
26946;SDS011;14501;52.282;10.560;2023-10-19T11:10:41;8.48;;;5.38;;
26946;SDS011;14501;52.282;10.560;2023-10-19T11:13:11;9.88;;;6.07;;
26946;SDS011;14501;52.282;10.560;2023-10-19T11:15:39;7.25;;;5.63;;
26946;SDS011;14501;52.282;10.560;2023-10-19T11:18:27;7.15;;;4.82;;
26946;SDS011;14501;52.282;10.560;2023-10-19T11:21:11;7.30;;;5.22;;
26946;SDS011;14501;52.282;10.560;2023-10-19T11:26:10;9.43;;;5.38;;
26946;SDS011;14501;52.282;10.560;2023-10-19T11:28:37;7.40;;;5.47;;
26946;SDS011;14501;52.282;10.560;2023-10-19T11:31:11;7.00;;;5.30;;
26946;SDS011;14501;52.282;10.560;2023-10-19T11:33:41;8.48;;;5.88;;
26946;SDS011;14501;52.282;10.560;2023-10-19T11:36:09;8.70;;;5.43;;
26946;SDS011;14501;52.282;10.560;2023-10-19T11:38:37;10.40;;;6.53;;
26946;SDS011;14501;52.282;10.560;2023-10-19T11:41:07;10.80;;;6.03;;
26946;SDS011;14501;52.282;10.560;2023-10-19T11:43:34;11.35;;;5.90;;
26946;SDS011;14501;52.282;10.560;2023-10-19T11:46:00;10.45;;;6.45;;
26946;SDS011;14501;52.282;10.560;2023-10-19T11:48:27;9.75;;;4.88;;
26946;SDS011;14501;52.282;10.560;2023-10-19T11:50:52;9.38;;;6.22;;
26946;SDS011;14501;52.282;10.560;2023-10-19T11:53:18;13.63;;;7.72;;
26946;SDS011;14501;52.282;10.560;2023-10-19T11:55:44;11.07;;;6.40;;
26946;SDS011;14501;52.282;10.560;2023-10-19T11:58:13;12.40;;;6.75;;
26946;SDS011;14501;52.282;10.560;2023-10-19T12:00:39;13.02;;;7.68;;
26946;SDS011;14501;52.282;10.560;2023-10-19T12:03:08;9.73;;;6.72;;
26946;SDS011;14501;52.282;10.560;2023-10-19T12:05:35;13.02;;;6.72;;
26946;SDS011;14501;52.282;10.560;2023-10-19T12:08:02;16.02;;;7.97;;
26946;SDS011;14501;52.282;10.560;2023-10-19T12:10:28;15.68;;;7.97;;
26946;SDS011;14501;52.282;10.560;2023-10-19T12:13:03;12.23;;;7.22;;
26946;SDS011;14501;52.282;10.560;2023-10-19T12:15:34;13.15;;;7.40;;
26946;SDS011;14501;52.282;10.560;2023-10-19T12:18:00;12.75;;;7.85;;
26946;SDS011;14501;52.282;10.560;2023-10-19T12:20:27;12.90;;;7.53;;
26946;SDS011;14501;52.282;10.560;2023-10-19T12:22:56;14.00;;;8.10;;
26946;SDS011;14501;52.282;10.560;2023-10-19T12:25:22;14.27;;;7.88;;
26946;SDS011;14501;52.282;10.560;2023-10-19T12:27:57;12.82;;;8.07;;
26946;SDS011;14501;52.282;10.560;2023-10-19T12:30:23;13.85;;;8.30;;
26946;SDS011;14501;52.282;10.560;2023-10-19T12:32:51;17.52;;;8.30;;
26946;SDS011;14501;52.282;10.560;2023-10-19T12:35:17;15.60;;;8.82;;
26946;SDS011;14501;52.282;10.560;2023-10-19T12:37:55;11.73;;;7.55;;
26946;SDS011;14501;52.282;10.560;2023-10-19T12:40:21;14.13;;;9.15;;
26946;SDS011;14501;52.282;10.560;2023-10-19T12:42:53;15.70;;;8.35;;
26946;SDS011;14501;52.282;10.560;2023-10-19T12:45:22;14.68;;;8.20;;
26946;SDS011;14501;52.282;10.560;2023-10-19T12:47:51;14.30;;;7.90;;
26946;SDS011;14501;52.282;10.560;2023-10-19T12:50:18;17.45;;;8.75;;
26946;SDS011;14501;52.282;10.560;2023-10-19T12:52:47;17.10;;;8.57;;
26946;SDS011;14501;52.282;10.560;2023-10-19T12:55:14;12.65;;;7.63;;
26946;SDS011;14501;52.282;10.560;2023-10-19T12:57:41;14.90;;;8.90;;
26946;SDS011;14501;52.282;10.560;2023-10-19T13:00:07;17.23;;;7.95;;
26946;SDS011;14501;52.282;10.560;2023-10-19T13:02:54;15.88;;;7.80;;
26946;SDS011;14501;52.282;10.560;2023-10-19T13:05:25;16.52;;;8.13;;
26946;SDS011;14501;52.282;10.560;2023-10-19T13:07:52;14.80;;;8.48;;
26946;SDS011;14501;52.282;10.560;2023-10-19T13:10:18;14.88;;;9.02;;
26946;SDS011;14501;52.282;10.560;2023-10-19T13:12:44;16.10;;;8.38;;
26946;SDS011;14501;52.282;10.560;2023-10-19T13:15:11;17.63;;;8.18;;
26946;SDS011;14501;52.282;10.560;2023-10-19T13:17:38;17.73;;;9.50;;
26946;SDS011;14501;52.282;10.560;2023-10-19T13:20:08;12.70;;;7.47;;
26946;SDS011;14501;52.282;10.560;2023-10-19T13:22:43;15.63;;;8.15;;
26946;SDS011;14501;52.282;10.560;2023-10-19T13:25:09;14.82;;;7.65;;
26946;SDS011;14501;52.282;10.560;2023-10-19T13:27:41;13.43;;;7.25;;
26946;SDS011;14501;52.282;10.560;2023-10-19T13:30:11;16.08;;;8.35;;
26946;SDS011;14501;52.282;10.560;2023-10-19T13:32:37;18.65;;;8.05;;
26946;SDS011;14501;52.282;10.560;2023-10-19T13:35:06;15.32;;;8.15;;
26946;SDS011;14501;52.282;10.560;2023-10-19T13:37:32;12.10;;;7.85;;
26946;SDS011;14501;52.282;10.560;2023-10-19T13:39:57;13.82;;;7.38;;
26946;SDS011;14501;52.282;10.560;2023-10-19T13:42:24;14.68;;;8.20;;
26946;SDS011;14501;52.282;10.560;2023-10-19T13:44:49;15.55;;;8.57;;
26946;SDS011;14501;52.282;10.560;2023-10-19T13:47:15;13.30;;;7.72;;
26946;SDS011;14501;52.282;10.560;2023-10-19T13:49:41;14.82;;;8.38;;
26946;SDS011;14501;52.282;10.560;2023-10-19T13:52:07;16.98;;;8.43;;
26946;SDS011;14501;52.282;10.560;2023-10-19T13:54:34;17.40;;;8.75;;
26946;SDS011;14501;52.282;10.560;2023-10-19T13:57:01;17.23;;;8.40;;
26946;SDS011;14501;52.282;10.560;2023-10-19T13:59:30;15.60;;;8.75;;
26946;SDS011;14501;52.282;10.560;2023-10-19T14:01:58;18.38;;;8.77;;
26946;SDS011;14501;52.282;10.560;2023-10-19T14:04:24;14.18;;;8.07;;
26946;SDS011;14501;52.282;10.560;2023-10-19T14:06:50;16.73;;;8.63;;
26946;SDS011;14501;52.282;10.560;2023-10-19T14:09:16;14.52;;;9.32;;
26946;SDS011;14501;52.282;10.560;2023-10-19T14:11:43;17.58;;;8.75;;
26946;SDS011;14501;52.282;10.560;2023-10-19T14:14:09;20.10;;;9.82;;
26946;SDS011;14501;52.282;10.560;2023-10-19T14:16:36;20.30;;;11.55;;
26946;SDS011;14501;52.282;10.560;2023-10-19T14:19:02;25.45;;;10.90;;
26946;SDS011;14501;52.282;10.560;2023-10-19T14:21:28;22.05;;;10.57;;
26946;SDS011;14501;52.282;10.560;2023-10-19T14:23:54;17.20;;;9.90;;
26946;SDS011;14501;52.282;10.560;2023-10-19T14:26:20;21.13;;;10.85;;
26946;SDS011;14501;52.282;10.560;2023-10-19T14:28:46;19.52;;;9.93;;
26946;SDS011;14501;52.282;10.560;2023-10-19T14:31:12;24.02;;;10.90;;
26946;SDS011;14501;52.282;10.560;2023-10-19T14:33:38;23.23;;;10.75;;
26946;SDS011;14501;52.282;10.560;2023-10-19T14:36:04;21.73;;;11.68;;
26946;SDS011;14501;52.282;10.560;2023-10-19T14:38:30;20.65;;;10.30;;
26946;SDS011;14501;52.282;10.560;2023-10-19T14:40:56;31.20;;;11.70;;
26946;SDS011;14501;52.282;10.560;2023-10-19T14:43:22;22.80;;;10.55;;
26946;SDS011;14501;52.282;10.560;2023-10-19T14:45:50;19.30;;;11.90;;
26946;SDS011;14501;52.282;10.560;2023-10-19T14:48:16;23.95;;;11.90;;
26946;SDS011;14501;52.282;10.560;2023-10-19T14:50:44;26.13;;;12.32;;